sensor_id;sensor_type;location;lat;lon;timestamp;P1;durP1;ratioP1;P2;durP2;ratioP2
9976;SDS011;5029;47.378;11.776;2022-11-20T00:02:28;4.20;;;3.80;;
9976;SDS011;5029;47.378;11.776;2022-11-20T00:07:32;3.80;;;3.50;;
9976;SDS011;5029;47.378;11.776;2022-11-20T00:12:35;4.20;;;3.80;;
9976;SDS011;5029;47.378;11.776;2022-11-20T00:17:40;4.43;;;4.03;;
9976;SDS011;5029;47.378;11.776;2022-11-20T00:22:44;4.50;;;3.93;;
9976;SDS011;5029;47.378;11.776;2022-11-20T00:27:48;4.30;;;3.90;;
9976;SDS011;5029;47.378;11.776;2022-11-20T00:32:53;4.83;;;3.80;;
9976;SDS011;5029;47.378;11.776;2022-11-20T00:37:58;4.40;;;4.00;;
9976;SDS011;5029;47.378;11.776;2022-11-20T00:43:02;3.50;;;3.20;;
9976;SDS011;5029;47.378;11.776;2022-11-20T00:48:07;3.70;;;3.40;;
9976;SDS011;5029;47.378;11.776;2022-11-20T00:53:11;3.83;;;3.53;;
9976;SDS011;5029;47.378;11.776;2022-11-20T00:58:14;4.20;;;3.87;;
9976;SDS011;5029;47.378;11.776;2022-11-20T01:03:19;4.03;;;3.70;;
9976;SDS011;5029;47.378;11.776;2022-11-20T01:08:29;3.57;;;3.27;;
9976;SDS011;5029;47.378;11.776;2022-11-20T01:13:34;4.87;;;3.83;;
9976;SDS011;5029;47.378;11.776;2022-11-20T01:18:43;4.47;;;4.07;;
9976;SDS011;5029;47.378;11.776;2022-11-20T01:23:47;4.57;;;4.17;;
9976;SDS011;5029;47.378;11.776;2022-11-20T01:28:52;4.73;;;3.83;;
9976;SDS011;5029;47.378;11.776;2022-11-20T01:33:58;5.27;;;4.10;;
9976;SDS011;5029;47.378;11.776;2022-11-20T01:39:03;4.20;;;3.80;;
9976;SDS011;5029;47.378;11.776;2022-11-20T01:44:08;5.83;;;4.07;;
9976;SDS011;5029;47.378;11.776;2022-11-20T01:49:18;5.47;;;3.43;;
9976;SDS011;5029;47.378;11.776;2022-11-20T01:54:27;4.10;;;3.70;;
9976;SDS011;5029;47.378;11.776;2022-11-20T01:59:35;4.43;;;3.70;;
9976;SDS011;5029;47.378;11.776;2022-11-20T02:04:44;4.73;;;4.03;;
9976;SDS011;5029;47.378;11.776;2022-11-20T02:09:49;4.77;;;3.50;;
9976;SDS011;5029;47.378;11.776;2022-11-20T02:14:59;4.87;;;3.83;;
9976;SDS011;5029;47.378;11.776;2022-11-20T02:20:04;4.77;;;3.83;;
9976;SDS011;5029;47.378;11.776;2022-11-20T02:25:10;3.20;;;2.90;;
9976;SDS011;5029;47.378;11.776;2022-11-20T02:30:15;4.00;;;3.60;;
9976;SDS011;5029;47.378;11.776;2022-11-20T02:40:49;4.20;;;3.80;;
9976;SDS011;5029;47.378;11.776;2022-11-20T02:45:56;3.97;;;3.67;;
9976;SDS011;5029;47.378;11.776;2022-11-20T02:50:59;3.80;;;3.27;;
9976;SDS011;5029;47.378;11.776;2022-11-20T02:56:05;4.00;;;3.53;;
9976;SDS011;5029;47.378;11.776;2022-11-20T03:01:09;3.90;;;3.50;;
9976;SDS011;5029;47.378;11.776;2022-11-20T03:06:13;3.50;;;3.20;;
9976;SDS011;5029;47.378;11.776;2022-11-20T03:11:18;3.67;;;3.37;;
9976;SDS011;5029;47.378;11.776;2022-11-20T03:16:22;3.70;;;3.33;;
9976;SDS011;5029;47.378;11.776;2022-11-20T03:21:26;3.50;;;3.20;;
9976;SDS011;5029;47.378;11.776;2022-11-20T03:26:31;4.13;;;3.30;;
9976;SDS011;5029;47.378;11.776;2022-11-20T03:31:35;4.17;;;3.60;;
9976;SDS011;5029;47.378;11.776;2022-11-20T03:36:42;4.27;;;3.50;;
9976;SDS011;5029;47.378;11.776;2022-11-20T03:41:47;4.60;;;4.00;;
9976;SDS011;5029;47.378;11.776;2022-11-20T03:46:50;7.30;;;4.63;;
9976;SDS011;5029;47.378;11.776;2022-11-20T03:51:54;5.03;;;4.43;;
9976;SDS011;5029;47.378;11.776;2022-11-20T03:56:59;7.03;;;4.80;;
9976;SDS011;5029;47.378;11.776;2022-11-20T04:02:02;6.23;;;5.50;;
9976;SDS011;5029;47.378;11.776;2022-11-20T04:07:06;5.57;;;5.07;;
9976;SDS011;5029;47.378;11.776;2022-11-20T04:12:11;5.63;;;4.90;;
9976;SDS011;5029;47.378;11.776;2022-11-20T04:17:15;5.50;;;4.30;;
9976;SDS011;5029;47.378;11.776;2022-11-20T04:22:18;5.60;;;4.23;;
9976;SDS011;5029;47.378;11.776;2022-11-20T04:27:23;5.00;;;4.50;;
9976;SDS011;5029;47.378;11.776;2022-11-20T04:32:27;4.87;;;4.47;;
9976;SDS011;5029;47.378;11.776;2022-11-20T04:37:31;6.13;;;4.70;;
9976;SDS011;5029;47.378;11.776;2022-11-20T04:42:36;5.57;;;4.37;;
9976;SDS011;5029;47.378;11.776;2022-11-20T04:47:40;5.87;;;5.10;;
9976;SDS011;5029;47.378;11.776;2022-11-20T04:52:43;5.20;;;4.70;;
9976;SDS011;5029;47.378;11.776;2022-11-20T04:57:50;5.63;;;4.53;;
9976;SDS011;5029;47.378;11.776;2022-11-20T05:02:54;4.57;;;4.17;;
9976;SDS011;5029;47.378;11.776;2022-11-20T05:07:57;4.20;;;3.80;;
9976;SDS011;5029;47.378;11.776;2022-11-20T05:13:02;5.10;;;4.60;;
9976;SDS011;5029;47.378;11.776;2022-11-20T05:18:09;4.30;;;3.90;;
9976;SDS011;5029;47.378;11.776;2022-11-20T05:23:12;4.77;;;4.37;;
9976;SDS011;5029;47.378;11.776;2022-11-20T05:28:17;5.30;;;4.80;;
9976;SDS011;5029;47.378;11.776;2022-11-20T05:33:21;7.13;;;4.90;;
9976;SDS011;5029;47.378;11.776;2022-11-20T05:38:25;5.07;;;4.67;;
9976;SDS011;5029;47.378;11.776;2022-11-20T05:43:30;5.17;;;4.77;;
9976;SDS011;5029;47.378;11.776;2022-11-20T05:48:35;5.60;;;5.10;;
9976;SDS011;5029;47.378;11.776;2022-11-20T05:53:39;5.50;;;5.00;;
9976;SDS011;5029;47.378;11.776;2022-11-20T05:58:50;5.73;;;5.17;;
9976;SDS011;5029;47.378;11.776;2022-11-20T06:03:54;5.10;;;4.70;;
9976;SDS011;5029;47.378;11.776;2022-11-20T06:15:38;4.53;;;4.13;;
9976;SDS011;5029;47.378;11.776;2022-11-20T06:21:09;5.10;;;4.30;;
9976;SDS011;5029;47.378;11.776;2022-11-20T06:26:31;4.73;;;4.33;;
9976;SDS011;5029;47.378;11.776;2022-11-20T06:31:47;7.67;;;5.07;;
9976;SDS011;5029;47.378;11.776;2022-11-20T06:37:02;4.97;;;4.40;;
9976;SDS011;5029;47.378;11.776;2022-11-20T06:42:30;4.97;;;4.57;;
9976;SDS011;5029;47.378;11.776;2022-11-20T06:48:09;5.53;;;5.00;;
9976;SDS011;5029;47.378;11.776;2022-11-20T06:53:24;5.00;;;4.60;;
9976;SDS011;5029;47.378;11.776;2022-11-20T06:59:10;5.00;;;4.50;;
9976;SDS011;5029;47.378;11.776;2022-11-20T07:04:37;7.10;;;4.77;;
9976;SDS011;5029;47.378;11.776;2022-11-20T07:09:48;5.27;;;4.77;;
9976;SDS011;5029;47.378;11.776;2022-11-20T07:14:53;6.03;;;5.43;;
9976;SDS011;5029;47.378;11.776;2022-11-20T07:20:01;5.30;;;4.80;;
9976;SDS011;5029;47.378;11.776;2022-11-20T07:25:08;4.60;;;4.20;;
9976;SDS011;5029;47.378;11.776;2022-11-20T07:30:13;5.27;;;4.77;;
9976;SDS011;5029;47.378;11.776;2022-11-20T07:35:22;5.43;;;4.93;;
9976;SDS011;5029;47.378;11.776;2022-11-20T07:40:26;10.27;;;9.27;;
9976;SDS011;5029;47.378;11.776;2022-11-20T07:45:42;5.97;;;5.43;;
9976;SDS011;5029;47.378;11.776;2022-11-20T07:50:52;6.23;;;5.73;;
9976;SDS011;5029;47.378;11.776;2022-11-20T07:55:59;7.20;;;6.50;;
9976;SDS011;5029;47.378;11.776;2022-11-20T08:01:11;7.13;;;6.53;;
9976;SDS011;5029;47.378;11.776;2022-11-20T08:06:19;5.73;;;5.23;;
9976;SDS011;5029;47.378;11.776;2022-11-20T08:11:29;8.73;;;7.93;;
9976;SDS011;5029;47.378;11.776;2022-11-20T08:16:52;8.27;;;7.47;;
9976;SDS011;5029;47.378;11.776;2022-11-20T08:22:00;8.33;;;7.63;;
9976;SDS011;5029;47.378;11.776;2022-11-20T08:27:08;7.53;;;6.80;;
9976;SDS011;5029;47.378;11.776;2022-11-20T08:32:15;9.67;;;8.60;;
9976;SDS011;5029;47.378;11.776;2022-11-20T08:37:36;8.37;;;7.57;;
9976;SDS011;5029;47.378;11.776;2022-11-20T08:43:21;7.63;;;7.03;;
9976;SDS011;5029;47.378;11.776;2022-11-20T08:48:30;7.80;;;7.10;;
9976;SDS011;5029;47.378;11.776;2022-11-20T08:53:39;6.77;;;6.17;;
9976;SDS011;5029;47.378;11.776;2022-11-20T08:58:50;6.63;;;6.03;;
9976;SDS011;5029;47.378;11.776;2022-11-20T09:04:25;6.87;;;6.30;;
9976;SDS011;5029;47.378;11.776;2022-11-20T09:09:32;7.00;;;6.40;;
9976;SDS011;5029;47.378;11.776;2022-11-20T09:14:48;8.80;;;7.03;;
9976;SDS011;5029;47.378;11.776;2022-11-20T09:20:40;7.23;;;6.53;;
9976;SDS011;5029;47.378;11.776;2022-11-20T09:25:56;7.97;;;7.27;;
9976;SDS011;5029;47.378;11.776;2022-11-20T09:31:04;8.00;;;7.20;;
9976;SDS011;5029;47.378;11.776;2022-11-20T09:36:08;8.93;;;8.03;;
9976;SDS011;5029;47.378;11.776;2022-11-20T09:41:19;8.90;;;8.10;;
9976;SDS011;5029;47.378;11.776;2022-11-20T09:46:38;8.70;;;7.90;;
9976;SDS011;5029;47.378;11.776;2022-11-20T09:51:50;8.33;;;7.63;;
9976;SDS011;5029;47.378;11.776;2022-11-20T09:57:02;8.40;;;7.70;;
9976;SDS011;5029;47.378;11.776;2022-11-20T10:02:14;9.23;;;8.00;;
9976;SDS011;5029;47.378;11.776;2022-11-20T10:07:27;8.63;;;7.83;;
9976;SDS011;5029;47.378;11.776;2022-11-20T10:12:40;8.30;;;7.60;;
9976;SDS011;5029;47.378;11.776;2022-11-20T10:18:08;7.73;;;7.10;;
9976;SDS011;5029;47.378;11.776;2022-11-20T10:23:31;8.00;;;7.30;;
9976;SDS011;5029;47.378;11.776;2022-11-20T10:34:24;7.67;;;6.97;;
9976;SDS011;5029;47.378;11.776;2022-11-20T10:39:36;8.23;;;7.60;;
9976;SDS011;5029;47.378;11.776;2022-11-20T10:44:51;7.47;;;6.77;;
9976;SDS011;5029;47.378;11.776;2022-11-20T10:50:11;6.80;;;6.30;;
9976;SDS011;5029;47.378;11.776;2022-11-20T10:55:25;6.57;;;5.97;;
9976;SDS011;5029;47.378;11.776;2022-11-20T11:00:36;13.33;;;11.93;;
9976;SDS011;5029;47.378;11.776;2022-11-20T11:05:40;8.73;;;7.93;;
9976;SDS011;5029;47.378;11.776;2022-11-20T11:11:09;7.00;;;6.40;;
9976;SDS011;5029;47.378;11.776;2022-11-20T11:16:35;6.57;;;6.00;;
9976;SDS011;5029;47.378;11.776;2022-11-20T11:21:52;6.23;;;5.73;;
9976;SDS011;5029;47.378;11.776;2022-11-20T11:27:04;5.90;;;5.40;;
9976;SDS011;5029;47.378;11.776;2022-11-20T11:32:33;5.47;;;5.07;;
9976;SDS011;5029;47.378;11.776;2022-11-20T11:37:41;5.67;;;4.30;;
9976;SDS011;5029;47.378;11.776;2022-11-20T11:42:49;4.57;;;4.17;;
9976;SDS011;5029;47.378;11.776;2022-11-20T11:48:00;3.90;;;3.60;;
9976;SDS011;5029;47.378;11.776;2022-11-20T11:53:10;4.80;;;4.37;;
9976;SDS011;5029;47.378;11.776;2022-11-20T11:58:23;4.13;;;3.73;;
9976;SDS011;5029;47.378;11.776;2022-11-20T12:09:34;3.83;;;3.30;;
9976;SDS011;5029;47.378;11.776;2022-11-20T12:15:04;3.60;;;3.30;;
9976;SDS011;5029;47.378;11.776;2022-11-20T12:20:17;3.70;;;3.33;;
9976;SDS011;5029;47.378;11.776;2022-11-20T12:25:35;3.30;;;3.00;;
9976;SDS011;5029;47.378;11.776;2022-11-20T12:31:02;3.00;;;2.60;;
9976;SDS011;5029;47.378;11.776;2022-11-20T12:36:40;3.13;;;2.87;;
9976;SDS011;5029;47.378;11.776;2022-11-20T12:42:18;4.07;;;3.17;;
9976;SDS011;5029;47.378;11.776;2022-11-20T12:54:54;2.50;;;2.30;;
9976;SDS011;5029;47.378;11.776;2022-11-20T13:00:23;2.13;;;1.93;;
9976;SDS011;5029;47.378;11.776;2022-11-20T13:05:37;2.17;;;1.97;;
9976;SDS011;5029;47.378;11.776;2022-11-20T13:10:55;2.17;;;1.80;;
9976;SDS011;5029;47.378;11.776;2022-11-20T13:16:08;1.63;;;1.53;;
9976;SDS011;5029;47.378;11.776;2022-11-20T13:21:21;1.60;;;1.50;;
9976;SDS011;5029;47.378;11.776;2022-11-20T13:26:43;2.00;;;1.57;;
9976;SDS011;5029;47.378;11.776;2022-11-20T13:32:06;1.20;;;1.10;;
9976;SDS011;5029;47.378;11.776;2022-11-20T13:37:24;1.10;;;1.00;;
9976;SDS011;5029;47.378;11.776;2022-11-20T13:55:23;2.63;;;1.40;;
9976;SDS011;5029;47.378;11.776;2022-11-20T14:00:49;2.10;;;1.40;;
9976;SDS011;5029;47.378;11.776;2022-11-20T14:06:12;1.67;;;1.57;;
9976;SDS011;5029;47.378;11.776;2022-11-20T14:11:31;2.07;;;1.40;;
9976;SDS011;5029;47.378;11.776;2022-11-20T14:22:50;1.23;;;1.00;;
9976;SDS011;5029;47.378;11.776;2022-11-20T14:28:17;1.50;;;1.30;;
9976;SDS011;5029;47.378;11.776;2022-11-20T14:33:40;1.40;;;1.30;;
9976;SDS011;5029;47.378;11.776;2022-11-20T14:45:47;1.33;;;0.90;;
9976;SDS011;5029;47.378;11.776;2022-11-20T14:51:24;0.80;;;0.80;;
9976;SDS011;5029;47.378;11.776;2022-11-20T14:56:38;1.00;;;0.90;;
9976;SDS011;5029;47.378;11.776;2022-11-20T15:01:56;1.40;;;1.10;;
9976;SDS011;5029;47.378;11.776;2022-11-20T15:07:25;1.10;;;1.00;;
9976;SDS011;5029;47.378;11.776;2022-11-20T15:12:33;1.20;;;1.10;;
9976;SDS011;5029;47.378;11.776;2022-11-20T15:17:47;1.40;;;1.10;;
9976;SDS011;5029;47.378;11.776;2022-11-20T15:22:57;2.87;;;0.90;;
9976;SDS011;5029;47.378;11.776;2022-11-20T15:28:30;0.80;;;0.80;;
9976;SDS011;5029;47.378;11.776;2022-11-20T15:33:44;1.27;;;1.10;;
9976;SDS011;5029;47.378;11.776;2022-11-20T15:38:57;1.40;;;1.30;;
9976;SDS011;5029;47.378;11.776;2022-11-20T15:44:09;2.67;;;1.40;;
9976;SDS011;5029;47.378;11.776;2022-11-20T15:49:24;1.30;;;1.10;;
9976;SDS011;5029;47.378;11.776;2022-11-20T15:54:30;1.50;;;1.40;;
9976;SDS011;5029;47.378;11.776;2022-11-20T15:59:38;1.57;;;1.33;;
9976;SDS011;5029;47.378;11.776;2022-11-20T16:16:50;1.63;;;1.33;;
9976;SDS011;5029;47.378;11.776;2022-11-20T16:22:30;1.40;;;1.30;;
9976;SDS011;5029;47.378;11.776;2022-11-20T16:27:47;1.30;;;1.00;;
9976;SDS011;5029;47.378;11.776;2022-11-20T16:33:48;1.00;;;0.93;;
9976;SDS011;5029;47.378;11.776;2022-11-20T16:39:12;1.50;;;1.23;;
9976;SDS011;5029;47.378;11.776;2022-11-20T16:44:39;2.20;;;1.80;;
9976;SDS011;5029;47.378;11.776;2022-11-20T16:49:59;2.20;;;1.80;;
9976;SDS011;5029;47.378;11.776;2022-11-20T16:55:24;1.77;;;1.57;;
9976;SDS011;5029;47.378;11.776;2022-11-20T17:01:12;1.43;;;1.30;;
9976;SDS011;5029;47.378;11.776;2022-11-20T17:06:29;1.83;;;1.63;;
9976;SDS011;5029;47.378;11.776;2022-11-20T17:11:35;3.90;;;2.67;;
9976;SDS011;5029;47.378;11.776;2022-11-20T17:16:42;3.23;;;2.93;;
9976;SDS011;5029;47.378;11.776;2022-11-20T17:21:49;1.40;;;1.30;;
9976;SDS011;5029;47.378;11.776;2022-11-20T17:26:55;1.23;;;0.90;;
9976;SDS011;5029;47.378;11.776;2022-11-20T17:32:03;0.80;;;0.73;;
9976;SDS011;5029;47.378;11.776;2022-11-20T17:37:15;1.63;;;1.20;;
9976;SDS011;5029;47.378;11.776;2022-11-20T17:42:21;1.50;;;1.13;;
9976;SDS011;5029;47.378;11.776;2022-11-20T17:47:40;2.03;;;1.40;;
9976;SDS011;5029;47.378;11.776;2022-11-20T17:52:51;1.70;;;1.13;;
9976;SDS011;5029;47.378;11.776;2022-11-20T17:57:56;1.60;;;1.50;;
9976;SDS011;5029;47.378;11.776;2022-11-20T18:03:04;1.20;;;1.10;;
9976;SDS011;5029;47.378;11.776;2022-11-20T18:08:13;0.90;;;0.80;;
9976;SDS011;5029;47.378;11.776;2022-11-20T18:13:18;1.93;;;1.23;;
9976;SDS011;5029;47.378;11.776;2022-11-20T18:18:48;1.50;;;1.40;;
9976;SDS011;5029;47.378;11.776;2022-11-20T18:23:58;2.67;;;1.67;;
9976;SDS011;5029;47.378;11.776;2022-11-20T18:29:03;2.10;;;1.33;;
9976;SDS011;5029;47.378;11.776;2022-11-20T18:34:10;1.50;;;1.10;;
9976;SDS011;5029;47.378;11.776;2022-11-20T18:39:16;2.37;;;1.30;;
9976;SDS011;5029;47.378;11.776;2022-11-20T18:44:23;2.80;;;1.33;;
9976;SDS011;5029;47.378;11.776;2022-11-20T18:49:47;2.23;;;2.03;;
9976;SDS011;5029;47.378;11.776;2022-11-20T18:54:55;2.90;;;2.60;;
9976;SDS011;5029;47.378;11.776;2022-11-20T19:00:00;2.90;;;2.60;;
9976;SDS011;5029;47.378;11.776;2022-11-20T19:05:11;2.47;;;2.27;;
9976;SDS011;5029;47.378;11.776;2022-11-20T19:10:20;3.43;;;3.13;;
9976;SDS011;5029;47.378;11.776;2022-11-20T19:15:25;5.67;;;4.23;;
9976;SDS011;5029;47.378;11.776;2022-11-20T19:20:30;5.50;;;5.00;;
9976;SDS011;5029;47.378;11.776;2022-11-20T19:25:39;3.30;;;3.00;;
9976;SDS011;5029;47.378;11.776;2022-11-20T19:30:44;2.37;;;1.93;;
9976;SDS011;5029;47.378;11.776;2022-11-20T19:35:50;3.33;;;2.63;;
9976;SDS011;5029;47.378;11.776;2022-11-20T19:40:57;6.20;;;4.10;;
9976;SDS011;5029;47.378;11.776;2022-11-20T19:46:02;4.00;;;3.60;;
9976;SDS011;5029;47.378;11.776;2022-11-20T19:51:08;4.50;;;2.93;;
9976;SDS011;5029;47.378;11.776;2022-11-20T19:56:17;3.00;;;2.70;;
9976;SDS011;5029;47.378;11.776;2022-11-20T20:01:24;5.33;;;3.90;;
9976;SDS011;5029;47.378;11.776;2022-11-20T20:06:32;5.67;;;3.93;;
9976;SDS011;5029;47.378;11.776;2022-11-20T20:11:43;4.70;;;4.00;;
9976;SDS011;5029;47.378;11.776;2022-11-20T20:16:59;4.60;;;3.50;;
9976;SDS011;5029;47.378;11.776;2022-11-20T20:22:04;3.17;;;2.27;;
9976;SDS011;5029;47.378;11.776;2022-11-20T20:27:13;2.10;;;1.50;;
9976;SDS011;5029;47.378;11.776;2022-11-20T20:32:18;2.50;;;1.43;;
9976;SDS011;5029;47.378;11.776;2022-11-20T20:37:23;1.90;;;1.50;;
9976;SDS011;5029;47.378;11.776;2022-11-20T20:42:31;4.07;;;2.70;;
9976;SDS011;5029;47.378;11.776;2022-11-20T20:47:39;3.83;;;2.57;;
9976;SDS011;5029;47.378;11.776;2022-11-20T20:52:44;2.70;;;2.40;;
9976;SDS011;5029;47.378;11.776;2022-11-20T20:57:51;5.47;;;4.07;;
9976;SDS011;5029;47.378;11.776;2022-11-20T21:02:57;4.00;;;3.03;;
9976;SDS011;5029;47.378;11.776;2022-11-20T21:08:03;3.83;;;3.23;;
9976;SDS011;5029;47.378;11.776;2022-11-20T21:13:29;3.17;;;2.87;;
9976;SDS011;5029;47.378;11.776;2022-11-20T21:18:33;3.80;;;3.10;;
9976;SDS011;5029;47.378;11.776;2022-11-20T21:23:38;3.43;;;2.87;;
9976;SDS011;5029;47.378;11.776;2022-11-20T21:28:45;4.30;;;3.47;;
9976;SDS011;5029;47.378;11.776;2022-11-20T21:33:50;3.07;;;2.87;;
9976;SDS011;5029;47.378;11.776;2022-11-20T21:38:56;2.57;;;2.37;;
9976;SDS011;5029;47.378;11.776;2022-11-20T21:44:03;2.50;;;2.30;;
9976;SDS011;5029;47.378;11.776;2022-11-20T21:49:28;3.13;;;2.83;;
9976;SDS011;5029;47.378;11.776;2022-11-20T21:54:32;4.63;;;3.97;;
9976;SDS011;5029;47.378;11.776;2022-11-20T21:59:38;6.50;;;4.90;;
9976;SDS011;5029;47.378;11.776;2022-11-20T22:04:41;4.83;;;4.33;;
9976;SDS011;5029;47.378;11.776;2022-11-20T22:09:46;5.33;;;4.40;;
9976;SDS011;5029;47.378;11.776;2022-11-20T22:14:51;3.93;;;3.53;;
9976;SDS011;5029;47.378;11.776;2022-11-20T22:19:54;3.27;;;2.90;;
9976;SDS011;5029;47.378;11.776;2022-11-20T22:24:58;4.40;;;4.00;;
9976;SDS011;5029;47.378;11.776;2022-11-20T22:30:03;5.13;;;3.67;;
9976;SDS011;5029;47.378;11.776;2022-11-20T22:35:07;4.50;;;3.90;;
9976;SDS011;5029;47.378;11.776;2022-11-20T22:40:11;4.23;;;3.60;;
9976;SDS011;5029;47.378;11.776;2022-11-20T22:45:17;4.90;;;3.17;;
9976;SDS011;5029;47.378;11.776;2022-11-20T22:50:20;4.43;;;3.47;;
9976;SDS011;5029;47.378;11.776;2022-11-20T22:55:24;4.43;;;3.50;;
9976;SDS011;5029;47.378;11.776;2022-11-20T23:00:29;4.83;;;4.03;;
9976;SDS011;5029;47.378;11.776;2022-11-20T23:05:32;6.13;;;5.17;;
9976;SDS011;5029;47.378;11.776;2022-11-20T23:10:36;5.13;;;4.30;;
9976;SDS011;5029;47.378;11.776;2022-11-20T23:15:41;4.93;;;4.30;;
9976;SDS011;5029;47.378;11.776;2022-11-20T23:20:44;5.00;;;4.43;;
9976;SDS011;5029;47.378;11.776;2022-11-20T23:25:48;4.77;;;4.23;;
9976;SDS011;5029;47.378;11.776;2022-11-20T23:31:02;4.50;;;4.00;;
9976;SDS011;5029;47.378;11.776;2022-11-20T23:36:56;4.13;;;3.73;;
9976;SDS011;5029;47.378;11.776;2022-11-20T23:42:01;4.67;;;3.77;;
9976;SDS011;5029;47.378;11.776;2022-11-20T23:47:07;4.27;;;3.33;;
9976;SDS011;5029;47.378;11.776;2022-11-20T23:52:10;4.63;;;3.67;;
9976;SDS011;5029;47.378;11.776;2022-11-20T23:57:14;4.43;;;3.83;;
